createdAt,value
2018-01-20T00:02:20.597Z,8.03
2018-01-20T00:04:48.444Z,8.43
2018-01-20T00:07:16.208Z,5.53
2018-01-20T00:12:49.442Z,4.10
2018-01-20T00:15:17.993Z,8.23
2018-01-20T00:17:45.866Z,8.13
2018-01-20T00:20:13.730Z,7.47
2018-01-20T00:22:41.618Z,8.47
2018-01-20T00:25:09.367Z,10.10
2018-01-20T00:27:41.763Z,7.67
2018-01-20T00:30:11.075Z,10.13
2018-01-20T00:32:39.066Z,9.73
2018-01-20T00:35:06.834Z,7.70
2018-01-20T00:37:34.587Z,8.47
2018-01-20T00:40:02.288Z,3.10
2018-01-20T00:42:30.057Z,7.23
2018-01-20T00:44:57.821Z,7.97
2018-01-20T00:47:25.550Z,4.90
2018-01-20T00:49:53.313Z,8.03
2018-01-20T00:52:21.051Z,7.97
2018-01-20T00:54:48.848Z,7.83
2018-01-20T00:57:16.599Z,6.37
2018-01-20T00:59:44.350Z,5.50
2018-01-20T01:02:12.048Z,7.77
2018-01-20T01:04:39.810Z,5.90
2018-01-20T01:07:09.090Z,5.43
2018-01-20T01:09:37.056Z,11.27
2018-01-20T01:12:04.849Z,9.13
2018-01-20T01:14:32.571Z,4.23
2018-01-20T01:17:00.312Z,8.10
2018-01-20T01:19:28.016Z,8.53
2018-01-20T01:21:55.777Z,9.00
2018-01-20T01:24:24.270Z,8.10
2018-01-20T01:26:51.945Z,7.93
2018-01-20T01:29:19.687Z,9.33
2018-01-20T01:31:47.446Z,8.37
2018-01-20T01:34:15.161Z,8.37
2018-01-20T01:36:43.617Z,8.97
2018-01-20T01:39:11.335Z,11.00
2018-01-20T01:41:39.038Z,7.00
2018-01-20T01:44:06.764Z,6.83
2018-01-20T01:46:35.043Z,8.63
2018-01-20T01:49:02.785Z,5.27
2018-01-20T01:51:30.709Z,6.33
2018-01-20T01:53:58.403Z,6.37
2018-01-20T01:56:26.113Z,7.00
2018-01-20T01:58:53.883Z,5.13
2018-01-20T02:01:21.628Z,6.17
2018-01-20T02:03:49.360Z,5.07
2018-01-20T02:06:17.113Z,7.40
2018-01-20T02:08:44.860Z,10.73
2018-01-20T02:11:13.389Z,5.73
2018-01-20T02:13:41.091Z,8.10
2018-01-20T02:16:08.844Z,11.53
2018-01-20T02:18:36.522Z,8.83
2018-01-20T02:21:05.005Z,6.13
2018-01-20T02:23:32.786Z,4.40
2018-01-20T02:26:00.463Z,6.60
2018-01-20T02:28:28.182Z,9.03
2018-01-20T02:30:55.933Z,4.50
2018-01-20T02:33:23.624Z,5.67
2018-01-20T02:35:51.366Z,9.43
2018-01-20T02:38:19.074Z,4.63
2018-01-20T02:40:46.828Z,8.93
2018-01-20T02:43:14.526Z,6.90
2018-01-20T02:45:42.317Z,3.83
2018-01-20T02:48:10.027Z,7.63
2018-01-20T02:50:37.697Z,4.60
2018-01-20T02:53:05.447Z,7.80
2018-01-20T02:55:33.207Z,9.37
2018-01-20T02:58:00.888Z,5.43
2018-01-20T03:00:28.619Z,3.43
2018-01-20T03:02:56.306Z,3.77
2018-01-20T03:05:24.060Z,3.87
2018-01-20T03:07:51.750Z,8.27
2018-01-20T03:10:19.486Z,4.80
2018-01-20T03:12:47.223Z,3.90
2018-01-20T03:15:14.923Z,5.30
2018-01-20T03:17:42.633Z,4.60
2018-01-20T03:20:11.086Z,5.73
2018-01-20T03:22:38.829Z,5.43
2018-01-20T03:25:06.595Z,9.07
2018-01-20T03:27:34.262Z,6.13
2018-01-20T03:30:02.020Z,4.73
2018-01-20T03:32:29.724Z,6.03
2018-01-20T03:34:57.558Z,5.57
2018-01-20T03:37:25.253Z,3.70
2018-01-20T03:39:53.000Z,5.77
2018-01-20T03:42:20.686Z,4.53
2018-01-20T03:44:48.435Z,3.33
2018-01-20T03:47:16.156Z,3.97
2018-01-20T03:49:43.894Z,4.10
2018-01-20T03:54:53.123Z,4.30
2018-01-20T03:57:21.562Z,1.73
2018-01-20T03:59:49.243Z,4.63
2018-01-20T04:02:16.959Z,1.97
2018-01-20T04:04:44.699Z,6.10
2018-01-20T04:07:12.401Z,6.50
2018-01-20T04:09:40.165Z,5.47
2018-01-20T04:12:07.842Z,5.67
2018-01-20T04:14:35.579Z,2.77
2018-01-20T04:17:03.326Z,2.93
2018-01-20T04:19:31.017Z,2.20
2018-01-20T04:21:58.771Z,1.87
2018-01-20T04:24:26.475Z,1.30
2018-01-20T04:26:54.961Z,0.97
2018-01-20T04:29:23.413Z,1.13
2018-01-20T04:31:51.145Z,4.10
2018-01-20T04:34:18.905Z,1.33
2018-01-20T04:36:46.583Z,0.70
2018-01-20T04:39:15.064Z,1.43
2018-01-20T04:41:42.785Z,2.73
2018-01-20T04:44:11.334Z,2.47
2018-01-20T04:46:39.014Z,1.53
2018-01-20T04:49:06.739Z,2.53
2018-01-20T04:51:34.424Z,3.87
2018-01-20T04:54:02.157Z,3.07
2018-01-20T04:56:29.849Z,4.37
2018-01-20T04:58:57.524Z,6.00
2018-01-20T05:01:26.057Z,4.17
2018-01-20T05:03:54.502Z,2.70
2018-01-20T05:06:22.370Z,2.57
2018-01-20T05:08:50.191Z,2.43
2018-01-20T05:11:17.909Z,3.83
2018-01-20T05:13:45.618Z,3.97
2018-01-20T05:16:13.395Z,1.83
2018-01-20T05:18:41.146Z,1.57
2018-01-20T05:21:08.869Z,2.93
2018-01-20T05:23:36.661Z,5.20
2018-01-20T05:26:04.390Z,2.60
2018-01-20T05:28:32.086Z,5.27
2018-01-20T05:30:59.826Z,3.40
2018-01-20T05:33:27.485Z,5.93
2018-01-20T05:35:55.198Z,4.80
2018-01-20T05:38:23.653Z,2.97
2018-01-20T05:40:51.370Z,3.03
2018-01-20T05:43:19.159Z,2.60
2018-01-20T05:45:46.909Z,3.37
2018-01-20T05:48:14.578Z,2.77
2018-01-20T05:50:42.306Z,2.53
2018-01-20T05:53:10.037Z,2.17
2018-01-20T05:55:37.754Z,2.70
2018-01-20T05:58:05.461Z,3.83
2018-01-20T06:00:33.243Z,3.43
2018-01-20T06:03:01.738Z,2.50
2018-01-20T06:05:30.223Z,2.90
2018-01-20T06:07:57.994Z,2.23
2018-01-20T06:10:25.806Z,1.47
2018-01-20T06:12:53.594Z,1.57
2018-01-20T06:15:22.078Z,1.27
2018-01-20T06:17:50.559Z,2.50
2018-01-20T06:20:19.060Z,1.97
2018-01-20T06:22:46.745Z,1.67
2018-01-20T06:25:15.241Z,2.37
2018-01-20T06:27:43.030Z,3.60
2018-01-20T06:30:12.402Z,1.13
2018-01-20T06:32:40.162Z,2.60
2018-01-20T06:35:07.931Z,2.30
2018-01-20T06:37:35.626Z,2.63
2018-01-20T06:40:03.480Z,2.87
2018-01-20T06:42:31.229Z,5.77
2018-01-20T06:44:58.932Z,4.53
2018-01-20T06:47:27.461Z,3.10
2018-01-20T06:49:55.164Z,7.30
2018-01-20T06:52:22.905Z,3.63
2018-01-20T06:54:50.622Z,3.60
2018-01-20T06:57:18.302Z,7.43
2018-01-20T06:59:46.015Z,2.63
2018-01-20T07:02:14.564Z,2.77
2018-01-20T07:04:42.344Z,3.77
2018-01-20T07:07:12.519Z,6.40
2018-01-20T07:09:40.290Z,4.20
2018-01-20T07:12:08.043Z,5.90
2018-01-20T07:14:35.797Z,3.50
2018-01-20T07:17:03.581Z,3.73
2018-01-20T07:19:31.487Z,3.60
2018-01-20T07:22:00.076Z,1.40
2018-01-20T07:24:28.052Z,3.07
2018-01-20T07:26:55.849Z,3.70
2018-01-20T07:29:32.804Z,2.77
2018-01-20T07:35:00.770Z,1.53
2018-01-20T07:37:28.656Z,2.33
2018-01-20T07:40:02.741Z,4.33
2018-01-20T07:42:31.288Z,2.50
2018-01-20T07:44:59.025Z,3.07
2018-01-20T07:47:27.560Z,1.33
2018-01-20T07:49:55.274Z,1.77
2018-01-20T07:52:22.998Z,3.53
2018-01-20T07:54:50.696Z,3.20
2018-01-20T07:57:19.701Z,4.40
2018-01-20T07:59:47.602Z,4.43
2018-01-20T08:02:17.231Z,2.80
2018-01-20T08:04:45.127Z,2.33
2018-01-20T08:07:14.785Z,5.97
2018-01-20T08:09:43.914Z,1.67
2018-01-20T08:12:12.541Z,1.40
2018-01-20T08:14:40.317Z,5.10
2018-01-20T08:17:08.309Z,3.27
2018-01-20T08:19:36.138Z,2.23
2018-01-20T08:22:03.831Z,2.73
2018-01-20T08:24:31.587Z,3.80
2018-01-20T08:26:59.272Z,4.00
2018-01-20T08:29:27.022Z,3.57
2018-01-20T08:31:54.706Z,6.13
2018-01-20T08:34:23.206Z,3.53
2018-01-20T08:36:50.909Z,5.73
2018-01-20T08:39:18.621Z,2.40
2018-01-20T08:41:46.300Z,4.93
2018-01-20T08:44:14.062Z,4.53
2018-01-20T08:46:41.769Z,6.20
2018-01-20T08:49:09.437Z,4.10
2018-01-20T08:51:37.189Z,3.97
2018-01-20T08:54:04.922Z,3.53
2018-01-20T08:56:32.642Z,4.03
2018-01-20T08:59:00.333Z,2.90
2018-01-20T09:01:28.120Z,3.97
2018-01-20T09:03:55.826Z,2.93
2018-01-20T09:06:24.383Z,3.10
2018-01-20T09:08:52.132Z,2.47
2018-01-20T09:11:19.883Z,3.37
2018-01-20T09:13:47.645Z,3.53
2018-01-20T09:16:15.350Z,3.20
2018-01-20T09:18:43.140Z,4.77
2018-01-20T09:21:10.868Z,3.40
2018-01-20T09:23:38.572Z,2.70
2018-01-20T09:26:06.283Z,4.53
2018-01-20T09:28:34.024Z,3.57
2018-01-20T09:31:01.806Z,2.73
2018-01-20T09:33:29.538Z,2.63
2018-01-20T09:35:57.218Z,1.60
2018-01-20T09:38:24.904Z,2.23
2018-01-20T09:40:52.646Z,2.50
2018-01-20T09:43:20.362Z,2.67
2018-01-20T09:45:48.112Z,1.77
2018-01-20T09:48:16.604Z,2.43
2018-01-20T09:50:44.359Z,1.73
2018-01-20T09:53:12.100Z,3.00
2018-01-20T09:55:39.891Z,2.20
2018-01-20T09:58:07.610Z,1.70
2018-01-20T10:00:35.364Z,3.23
2018-01-20T10:03:03.078Z,2.40
2018-01-20T10:05:31.750Z,2.50
2018-01-20T10:08:00.230Z,2.97
2018-01-20T10:10:28.703Z,2.27
2018-01-20T10:12:57.383Z,1.70
2018-01-20T10:15:25.055Z,2.00
2018-01-20T10:17:53.549Z,2.80
2018-01-20T10:20:22.090Z,2.27
2018-01-20T10:22:49.820Z,1.77
2018-01-20T10:25:17.661Z,2.33
2018-01-20T10:27:45.383Z,1.60
2018-01-20T10:30:13.104Z,1.63
2018-01-20T10:32:40.803Z,1.70
2018-01-20T10:35:08.540Z,1.77
2018-01-20T10:37:36.213Z,1.23
2018-01-20T10:40:03.980Z,1.70
2018-01-20T10:42:31.722Z,1.60
2018-01-20T10:44:59.453Z,1.77
2018-01-20T10:47:27.961Z,1.63
2018-01-20T10:49:55.712Z,1.97
2018-01-20T10:52:23.471Z,2.77
2018-01-20T10:54:51.267Z,2.27
2018-01-20T10:57:19.849Z,2.17
2018-01-20T10:59:47.609Z,2.23
2018-01-20T11:02:15.384Z,2.00
2018-01-20T11:04:43.089Z,2.23
2018-01-20T11:07:11.621Z,1.93
2018-01-20T11:09:39.377Z,1.90
2018-01-20T11:12:07.111Z,2.70
2018-01-20T11:14:34.879Z,2.80
2018-01-20T11:17:02.629Z,2.47
2018-01-20T11:19:30.463Z,3.70
2018-01-20T11:21:58.157Z,4.17
2018-01-20T11:24:26.639Z,3.73
2018-01-20T11:26:54.346Z,2.60
2018-01-20T11:29:22.065Z,3.70
2018-01-20T11:31:49.783Z,2.80
2018-01-20T11:34:17.453Z,2.43
2018-01-20T11:36:45.148Z,2.60
2018-01-20T11:39:13.390Z,2.53
2018-01-20T11:41:41.145Z,3.60
2018-01-20T11:44:08.817Z,3.57
2018-01-20T11:46:36.522Z,3.60
2018-01-20T11:49:04.202Z,3.43
2018-01-20T11:51:32.105Z,3.60
2018-01-20T11:53:59.837Z,3.50
2018-01-20T11:56:27.806Z,4.03
2018-01-20T11:58:55.514Z,3.13
2018-01-20T12:01:23.235Z,3.13
2018-01-20T12:03:51.027Z,3.10
2018-01-20T12:06:18.717Z,2.93
2018-01-20T12:08:46.548Z,2.60
2018-01-20T12:11:14.221Z,2.80
2018-01-20T12:13:41.931Z,3.53
2018-01-20T12:16:09.608Z,2.70
2018-01-20T12:18:37.398Z,3.30
2018-01-20T12:21:05.511Z,5.07
2018-01-20T12:23:33.270Z,4.20
2018-01-20T12:26:01.030Z,4.10
2018-01-20T12:28:28.935Z,5.40
2018-01-20T12:30:56.762Z,4.53
2018-01-20T12:33:24.593Z,5.90
2018-01-20T12:35:52.632Z,3.10
2018-01-20T12:38:20.427Z,3.07
2018-01-20T12:40:48.149Z,3.40
2018-01-20T12:43:16.091Z,3.13
2018-01-20T12:45:43.875Z,2.60
2018-01-20T12:51:04.438Z,2.90
2018-01-20T12:53:32.249Z,2.07
2018-01-20T12:55:59.926Z,4.20
2018-01-20T12:58:27.625Z,2.97
2018-01-20T13:00:56.816Z,2.27
2018-01-20T13:03:24.654Z,2.70
2018-01-20T13:05:52.337Z,2.30
2018-01-20T13:08:20.131Z,2.30
2018-01-20T13:10:47.809Z,2.87
2018-01-20T13:13:15.702Z,3.33
2018-01-20T13:15:43.383Z,2.77
2018-01-20T13:18:11.178Z,2.87
2018-01-20T13:20:39.026Z,3.43
2018-01-20T13:23:06.789Z,3.40
2018-01-20T13:25:34.467Z,3.10
2018-01-20T13:28:03.112Z,4.17
2018-01-20T13:30:30.975Z,3.50
2018-01-20T13:32:58.670Z,2.63
2018-01-20T13:35:26.440Z,3.43
2018-01-20T13:37:54.117Z,3.00
2018-01-20T13:40:21.893Z,1.97
2018-01-20T13:42:49.691Z,3.53
2018-01-20T13:45:17.375Z,2.40
2018-01-20T13:47:45.134Z,5.73
2018-01-20T13:50:12.811Z,5.23
2018-01-20T13:52:40.671Z,4.00
2018-01-20T13:55:09.152Z,3.30
2018-01-20T13:57:37.293Z,3.40
2018-01-20T14:00:05.273Z,2.80
2018-01-20T14:02:33.010Z,3.70
2018-01-20T14:05:00.689Z,3.03
2018-01-20T14:07:29.309Z,3.10
2018-01-20T14:09:56.982Z,2.47
2018-01-20T14:12:24.741Z,6.03
2018-01-20T14:14:53.242Z,3.53
2018-01-20T14:17:20.956Z,3.27
2018-01-20T14:19:50.334Z,3.97
2018-01-20T14:22:18.201Z,4.37
2018-01-20T14:24:45.930Z,3.13
2018-01-20T14:27:13.669Z,4.10
2018-01-20T14:29:41.593Z,3.60
2018-01-20T14:32:09.398Z,5.90
2018-01-20T14:34:38.088Z,6.00
2018-01-20T14:37:06.601Z,5.67
2018-01-20T14:39:34.673Z,4.67
2018-01-20T14:42:02.610Z,6.63
2018-01-20T14:44:31.198Z,4.60
2018-01-20T14:46:59.061Z,5.37
2018-01-20T14:49:26.911Z,5.47
2018-01-20T14:51:56.157Z,6.03
2018-01-20T14:54:23.836Z,4.87
2018-01-20T14:56:51.737Z,11.73
2018-01-20T14:59:19.522Z,9.50
2018-01-20T15:01:48.010Z,8.10
2018-01-20T15:04:15.780Z,13.40
2018-01-20T15:06:43.702Z,12.47
2018-01-20T15:09:11.408Z,9.97
2018-01-20T15:11:39.203Z,7.20
2018-01-20T15:14:07.067Z,8.73
2018-01-20T15:16:35.934Z,11.63
2018-01-20T15:19:03.826Z,9.57
2018-01-20T15:21:31.629Z,8.53
2018-01-20T15:23:59.537Z,6.57
2018-01-20T15:26:27.423Z,7.07
2018-01-20T15:28:55.115Z,6.70
2018-01-20T15:31:22.954Z,10.77
2018-01-20T15:33:50.643Z,10.00
2018-01-20T15:36:18.429Z,13.63
2018-01-20T15:38:47.030Z,10.47
2018-01-20T15:41:15.763Z,9.30
2018-01-20T15:43:43.561Z,7.63
2018-01-20T15:46:11.336Z,7.73
2018-01-20T15:48:39.199Z,6.63
2018-01-20T15:51:06.935Z,10.87
2018-01-20T15:53:34.683Z,8.67
2018-01-20T15:56:02.489Z,7.83
2018-01-20T15:58:30.293Z,8.03
2018-01-20T16:00:58.006Z,9.23
2018-01-20T16:03:26.794Z,12.43
2018-01-20T16:05:54.675Z,12.20
2018-01-20T16:08:22.506Z,13.80
2018-01-20T16:10:50.385Z,12.63
2018-01-20T16:13:21.557Z,9.50
2018-01-20T16:15:49.956Z,15.40
2018-01-20T16:18:19.730Z,14.57
2018-01-20T16:20:47.597Z,12.43
2018-01-20T16:23:15.398Z,10.97
2018-01-20T16:25:43.366Z,13.60
2018-01-20T16:28:11.200Z,13.83
2018-01-20T16:30:38.974Z,12.83
2018-01-20T16:33:06.966Z,11.03
2018-01-20T16:35:34.762Z,8.83
2018-01-20T16:38:02.442Z,8.80
2018-01-20T16:40:30.287Z,9.67
2018-01-20T16:42:58.150Z,7.50
2018-01-20T16:45:26.088Z,9.53
2018-01-20T16:47:53.798Z,6.17
2018-01-20T16:50:22.426Z,7.37
2018-01-20T16:52:50.132Z,11.43
2018-01-20T16:55:17.963Z,10.33
2018-01-20T16:57:45.826Z,7.47
2018-01-20T17:00:13.603Z,7.87
2018-01-20T17:02:41.278Z,11.97
2018-01-20T17:05:09.219Z,13.70
2018-01-20T17:07:37.059Z,11.53
2018-01-20T17:13:17.868Z,13.57
2018-01-20T17:15:45.751Z,9.83
2018-01-20T17:18:13.468Z,11.57
2018-01-20T17:20:41.213Z,11.07
2018-01-20T17:23:08.952Z,9.97
2018-01-20T17:25:36.689Z,7.87
2018-01-20T17:28:04.482Z,11.80
2018-01-20T17:30:32.205Z,8.80
2018-01-20T17:33:00.734Z,11.60
2018-01-20T17:35:28.457Z,12.50
2018-01-20T17:37:56.165Z,11.23
2018-01-20T17:40:23.845Z,7.93
2018-01-20T17:42:51.715Z,10.53
2018-01-20T17:45:20.235Z,8.83
2018-01-20T17:47:48.000Z,8.17
2018-01-20T17:50:15.770Z,6.67
2018-01-20T17:52:43.498Z,8.10
2018-01-20T17:55:12.056Z,8.97
2018-01-20T17:57:39.765Z,9.13
2018-01-20T18:00:07.521Z,8.83
2018-01-20T18:02:35.218Z,8.83
2018-01-20T18:05:02.988Z,8.17
2018-01-20T18:07:30.834Z,7.23
2018-01-20T18:09:58.550Z,8.93
2018-01-20T18:12:26.293Z,7.83
2018-01-20T18:14:54.619Z,6.73
2018-01-20T18:17:22.343Z,7.23
2018-01-20T18:19:50.071Z,6.20
2018-01-20T18:22:17.920Z,8.00
2018-01-20T18:24:49.018Z,6.20
2018-01-20T18:27:16.775Z,6.83
2018-01-20T18:29:44.502Z,6.83
2018-01-20T18:32:12.191Z,7.57
2018-01-20T18:34:40.090Z,5.27
2018-01-20T18:37:07.959Z,6.03
2018-01-20T18:39:36.441Z,6.30
2018-01-20T18:42:04.252Z,5.43
2018-01-20T18:44:32.074Z,5.17
2018-01-20T18:46:59.837Z,5.70
2018-01-20T18:49:27.563Z,5.87
2018-01-20T18:51:55.285Z,7.60
2018-01-20T18:54:23.079Z,5.17
2018-01-20T18:56:50.816Z,6.47
2018-01-20T18:59:18.525Z,6.33
2018-01-20T19:01:46.188Z,4.83
2018-01-20T19:04:14.079Z,5.43
2018-01-20T19:06:42.601Z,4.63
2018-01-20T19:09:10.333Z,4.83
2018-01-20T19:11:38.021Z,5.13
2018-01-20T19:14:05.705Z,6.10
2018-01-20T19:16:33.415Z,3.53
2018-01-20T19:19:01.111Z,4.03
2018-01-20T19:21:28.818Z,4.27
2018-01-20T19:23:57.275Z,4.03
2018-01-20T19:26:25.011Z,3.60
2018-01-20T19:28:52.775Z,4.37
2018-01-20T19:31:20.746Z,3.33
2018-01-20T19:33:48.595Z,3.40
2018-01-20T19:36:17.229Z,4.17
2018-01-20T19:38:45.346Z,4.17
2018-01-20T19:41:13.170Z,4.63
2018-01-20T19:43:41.770Z,4.47
2018-01-20T19:46:10.339Z,4.57
2018-01-20T19:48:38.958Z,4.30
2018-01-20T19:51:08.034Z,5.77
2018-01-20T19:53:36.386Z,6.30
2018-01-20T19:56:04.866Z,6.60
2018-01-20T19:58:32.660Z,5.03
2018-01-20T20:01:00.349Z,6.90
2018-01-20T20:03:28.111Z,6.63
2018-01-20T20:05:56.044Z,7.60
2018-01-20T20:08:24.556Z,8.40
2018-01-20T20:10:52.316Z,8.17
2018-01-20T20:13:20.905Z,6.80
2018-01-20T20:15:48.657Z,6.90
2018-01-20T20:18:16.362Z,7.33
2018-01-20T20:20:44.859Z,6.97
2018-01-20T20:23:13.020Z,6.23
2018-01-20T20:25:40.789Z,6.20
2018-01-20T20:28:08.490Z,6.87
2018-01-20T20:30:36.205Z,10.77
2018-01-20T20:33:03.915Z,8.83
2018-01-20T20:35:31.782Z,9.63
2018-01-20T20:37:59.534Z,8.13
2018-01-20T20:40:27.327Z,9.20
2018-01-20T20:42:55.062Z,9.00
2018-01-20T20:45:22.885Z,13.37
2018-01-20T20:47:50.611Z,12.60
2018-01-20T20:50:18.384Z,11.57
2018-01-20T20:52:46.138Z,12.73
2018-01-20T20:55:13.921Z,12.23
2018-01-20T20:57:41.696Z,12.50
2018-01-20T21:00:09.413Z,11.13
2018-01-20T21:02:37.137Z,14.33
2018-01-20T21:05:04.897Z,14.30
2018-01-20T21:07:32.597Z,11.97
2018-01-20T21:10:00.360Z,12.73
2018-01-20T21:12:28.390Z,13.23
2018-01-20T21:14:56.944Z,11.90
2018-01-20T21:17:24.745Z,11.47
2018-01-20T21:19:52.486Z,13.43
2018-01-20T21:22:20.323Z,11.03
2018-01-20T21:24:48.102Z,11.67
2018-01-20T21:27:15.829Z,8.43
2018-01-20T21:29:43.581Z,9.77
2018-01-20T21:32:12.242Z,9.17
2018-01-20T21:34:40.810Z,8.53
2018-01-20T21:37:08.531Z,8.27
2018-01-20T21:39:36.294Z,8.73
2018-01-20T21:42:04.118Z,14.77
2018-01-20T21:44:31.877Z,10.70
2018-01-20T21:46:59.607Z,14.67
2018-01-20T21:49:27.291Z,13.37
2018-01-20T21:51:55.050Z,12.13
2018-01-20T21:54:22.754Z,10.77
2018-01-20T21:56:50.436Z,11.07
2018-01-20T21:59:18.145Z,7.37
2018-01-20T22:01:45.886Z,11.27
2018-01-20T22:04:13.551Z,10.67
2018-01-20T22:06:41.291Z,10.80
2018-01-20T22:09:08.973Z,9.77
2018-01-20T22:11:36.691Z,9.27
2018-01-20T22:14:05.172Z,7.77
2018-01-20T22:16:33.616Z,8.10
2018-01-20T22:19:01.329Z,5.37
2018-01-20T22:21:29.012Z,4.53
2018-01-20T22:23:57.405Z,5.00
2018-01-20T22:26:25.303Z,5.93
2018-01-20T22:28:53.748Z,6.63
2018-01-20T22:31:21.432Z,9.33
2018-01-20T22:33:49.155Z,7.60
2018-01-20T22:36:16.825Z,7.83
2018-01-20T22:38:44.507Z,7.03
2018-01-20T22:41:12.224Z,7.63
2018-01-20T22:43:39.949Z,8.03
2018-01-20T22:46:08.509Z,7.27
2018-01-20T22:48:37.034Z,8.47
2018-01-20T22:51:04.734Z,10.03
2018-01-20T22:53:32.409Z,11.17
2018-01-20T22:56:00.126Z,9.07
2018-01-20T22:58:27.838Z,9.80
2018-01-20T23:00:55.622Z,8.33
2018-01-20T23:03:23.329Z,9.50
2018-01-20T23:05:51.063Z,8.07
2018-01-20T23:08:19.794Z,10.23
2018-01-20T23:10:47.552Z,9.83
2018-01-20T23:13:16.077Z,9.40
2018-01-20T23:15:43.854Z,6.77
2018-01-20T23:18:11.627Z,7.67
2018-01-20T23:20:40.184Z,7.93
2018-01-20T23:23:08.097Z,7.30
2018-01-20T23:25:36.019Z,11.53
2018-01-20T23:28:04.501Z,8.43
2018-01-20T23:30:34.210Z,12.33
2018-01-20T23:33:02.132Z,8.83
2018-01-20T23:35:29.906Z,7.20
2018-01-20T23:37:57.739Z,6.83
2018-01-20T23:40:25.621Z,6.37
2018-01-20T23:42:53.869Z,5.93
2018-01-20T23:45:21.637Z,5.90
2018-01-20T23:47:49.408Z,6.10
2018-01-20T23:50:17.250Z,8.03
2018-01-20T23:52:45.708Z,9.33
2018-01-20T23:55:14.214Z,8.20
2018-01-20T23:57:42.284Z,7.13
